Montgomery, Alabama
Current Conditions -  °F | °C
As of 7:16 AM on Monday 22 Dec 2014 (Local Time) from KMGM Reporting Station
Haze Haze  
Wind Chill: 52°   Ceiling: 200
Heat Index: 52°   Visibility: 0.75mi
Dew Point: 48°   Wind: 13mph
Humidity: 88%   Direction: 90°E
Pressure: 29.97"   Gusts: NA
Location:  32.38°N, 86.3°W
Report Text: KMGM 221316Z 09011KT 3/4SM BR OVC002 11/09 A2997 RMK AO2
Loading
Personal Weather Stations






























Interactive Weather Map New forecast layout! Learn more

10-Day Weather Forecast

Advertisements
Track Severe Weather on mobile